Niarada, Montana
Current Conditions -  °F | °C
As of 2:53 AM on Saturday 25 Oct 2014 (Local Time) from KMSO Reporting Station
Clear Clear  
Wind Chill: 42°   Ceiling: Unl
Heat Index: 44°   Visibility: 10mi
Dew Point: 43°   Wind: 5mph
Humidity: 96%   Direction: 120°ESE
Pressure: 30.02"   Gusts: NA
Location:  47.5344°N, 114.56°W
Report Text: KMSO 250853Z AUTO 12004KT 10SM CLR 07/06 A3002 RMK AO2 SLP171 T00670061 58017
Loading
Personal Weather Stations






























Interactive Weather Map
Tropical Storm Tracking
New forecast layout! Learn more

10-Day Weather Forecast

Advertisements
Track Severe Weather on mobile